createdAt,value
2022-12-16T00:01:25.943Z,0.62
2022-12-16T00:03:55.473Z,0.59
2022-12-16T00:06:25.025Z,0.59
2022-12-16T00:08:52.128Z,0.52
2022-12-16T00:11:19.854Z,0.48
2022-12-16T00:13:47.334Z,0.38
2022-12-16T00:16:16.410Z,0.33
2022-12-16T00:18:44.040Z,0.32
2022-12-16T00:21:11.265Z,0.34
2022-12-16T00:23:47.202Z,0.27
2022-12-16T00:26:14.414Z,0.31
2022-12-16T00:28:41.579Z,0.31
2022-12-16T00:31:08.458Z,0.29
2022-12-16T00:33:35.753Z,0.26
2022-12-16T00:36:03.158Z,0.23
2022-12-16T00:38:29.968Z,0.23
2022-12-16T00:40:56.777Z,0.21
2022-12-16T00:43:23.460Z,0.25
2022-12-16T00:45:50.618Z,0.24
2022-12-16T00:48:19.165Z,0.27
2022-12-16T00:50:55.792Z,0.16
2022-12-16T00:53:24.074Z,0.19
2022-12-16T00:55:51.351Z,0.18
2022-12-16T00:58:18.876Z,0.26
2022-12-16T01:00:45.579Z,0.31
2022-12-16T01:03:15.579Z,0.35
2022-12-16T01:05:46.171Z,0.40
2022-12-16T01:08:13.205Z,0.42
2022-12-16T01:10:39.827Z,0.45
2022-12-16T01:13:06.584Z,0.52
2022-12-16T01:15:33.201Z,0.47
2022-12-16T01:17:59.821Z,0.35
2022-12-16T01:20:26.446Z,0.33
2022-12-16T01:22:53.047Z,0.35
2022-12-16T01:25:21.564Z,0.35
2022-12-16T01:27:48.504Z,0.40
2022-12-16T01:30:15.181Z,0.33
2022-12-16T01:32:41.821Z,0.39
2022-12-16T01:35:29.500Z,0.35
2022-12-16T01:37:56.220Z,0.38
2022-12-16T01:40:24.804Z,0.37
2022-12-16T01:42:51.735Z,0.42
2022-12-16T01:45:25.221Z,0.35
2022-12-16T01:47:56.317Z,0.26
2022-12-16T01:50:23.341Z,0.17
2022-12-16T01:52:56.756Z,0.22
2022-12-16T01:55:31.600Z,0.08
2022-12-16T01:58:09.305Z,0.03
2022-12-16T02:00:38.477Z,-0.01
2022-12-16T02:03:06.372Z,-0.11
2022-12-16T02:05:36.366Z,-0.23
2022-12-16T02:08:10.114Z,-0.23
2022-12-16T02:10:39.838Z,-0.23
2022-12-16T02:13:15.455Z,-0.22
2022-12-16T02:16:17.353Z,-0.25
2022-12-16T02:19:31.140Z,-0.22
2022-12-16T02:22:22.484Z,-0.31
2022-12-16T02:25:26.644Z,-0.44
2022-12-16T02:27:59.365Z,-0.43
2022-12-16T02:31:05.516Z,-0.34
2022-12-16T02:33:45.168Z,-0.40
2022-12-16T02:36:41.219Z,-0.36
2022-12-16T02:39:20.930Z,-0.44
2022-12-16T02:41:57.439Z,-0.46
2022-12-16T02:44:36.284Z,-0.59
2022-12-16T02:47:02.916Z,-0.66
2022-12-16T02:49:30.000Z,-0.60
2022-12-16T02:51:59.696Z,-0.57
2022-12-16T02:54:27.963Z,-0.55
2022-12-16T02:57:03.640Z,-0.60
2022-12-16T02:59:42.260Z,-0.64
2022-12-16T03:02:24.398Z,-0.67
2022-12-16T03:05:08.668Z,-0.68
2022-12-16T03:07:38.765Z,-0.64
2022-12-16T03:10:10.183Z,-0.70
2022-12-16T03:12:41.291Z,-0.77
2022-12-16T03:15:09.248Z,-0.81
2022-12-16T03:17:37.573Z,-0.73
2022-12-16T03:20:16.605Z,-0.70
2022-12-16T03:22:46.433Z,-0.72
2022-12-16T03:25:13.980Z,-0.78
2022-12-16T03:28:04.843Z,-0.78
2022-12-16T03:30:47.897Z,-0.80
2022-12-16T03:33:28.264Z,-0.78
2022-12-16T03:36:02.046Z,-0.80
2022-12-16T03:38:29.700Z,-0.76
2022-12-16T03:40:58.209Z,-0.75
2022-12-16T03:43:25.247Z,-0.72
2022-12-16T03:45:56.812Z,-0.79
2022-12-16T03:48:26.064Z,-0.77
2022-12-16T03:50:52.707Z,-0.89
2022-12-16T03:53:24.526Z,-0.97
2022-12-16T03:55:51.114Z,-1.04
2022-12-16T03:58:17.773Z,-1.14
2022-12-16T04:00:44.539Z,-1.13
2022-12-16T04:03:11.366Z,-1.21
2022-12-16T04:05:38.429Z,-1.20
2022-12-16T04:08:05.003Z,-1.23
2022-12-16T04:10:50.217Z,-1.27
2022-12-16T04:13:35.884Z,-1.23
2022-12-16T04:16:21.351Z,-1.27
2022-12-16T04:19:07.125Z,-1.18
2022-12-16T04:21:52.613Z,-1.14
2022-12-16T04:24:20.281Z,-1.19
2022-12-16T04:27:15.072Z,-1.14
2022-12-16T04:30:02.842Z,-1.19
2022-12-16T04:32:49.729Z,-1.18
2022-12-16T04:35:35.077Z,-1.18
2022-12-16T04:38:20.517Z,-1.16
2022-12-16T04:41:05.677Z,-1.26
2022-12-16T04:43:51.050Z,-1.27
2022-12-16T04:46:36.466Z,-1.28
2022-12-16T04:49:21.860Z,-1.36
2022-12-16T04:52:07.196Z,-1.34
2022-12-16T04:54:52.281Z,-1.29
2022-12-16T04:57:37.452Z,-1.30
2022-12-16T05:00:23.816Z,-1.34
2022-12-16T05:03:09.136Z,-1.52
2022-12-16T05:05:55.085Z,-1.42
2022-12-16T05:08:40.276Z,-1.46
2022-12-16T05:11:35.887Z,-1.54
2022-12-16T05:14:21.057Z,-1.48
2022-12-16T05:17:06.190Z,-1.52
2022-12-16T05:19:51.290Z,-1.47
2022-12-16T05:22:36.502Z,-1.56
2022-12-16T05:25:22.246Z,-1.58
2022-12-16T05:28:12.121Z,-1.69
2022-12-16T05:30:57.509Z,-1.73
2022-12-16T05:33:42.796Z,-1.72
2022-12-16T05:36:27.936Z,-1.82
2022-12-16T05:39:13.122Z,-1.81
2022-12-16T05:41:58.472Z,-1.74
2022-12-16T05:44:43.774Z,-1.71
2022-12-16T05:47:29.202Z,-1.69
2022-12-16T05:50:14.555Z,-1.76
2022-12-16T05:53:10.366Z,-1.81
2022-12-16T05:55:55.700Z,-1.72
2022-12-16T05:58:41.204Z,-1.79
2022-12-16T06:01:27.110Z,-1.82
2022-12-16T06:04:17.221Z,-1.78
2022-12-16T06:07:02.967Z,-1.85
2022-12-16T06:09:53.113Z,-1.80
2022-12-16T06:12:41.897Z,-1.71
2022-12-16T06:15:27.526Z,-1.70
2022-12-16T06:18:12.479Z,-1.67
2022-12-16T06:20:58.268Z,-1.68
2022-12-16T06:23:43.164Z,-1.70
2022-12-16T06:26:28.317Z,-1.60
2022-12-16T06:29:13.695Z,-1.63
2022-12-16T06:31:58.864Z,-1.67
2022-12-16T06:34:44.114Z,-1.69
2022-12-16T06:37:29.073Z,-1.71
2022-12-16T06:40:14.000Z,-1.79
2022-12-16T06:42:59.661Z,-1.78
2022-12-16T06:45:45.493Z,-1.74
2022-12-16T06:48:31.321Z,-1.84
2022-12-16T06:51:16.633Z,-1.86
2022-12-16T06:54:01.885Z,-1.80
2022-12-16T06:56:47.100Z,-1.83
2022-12-16T06:59:32.668Z,-1.84
2022-12-16T07:02:18.235Z,-1.80
2022-12-16T07:05:03.755Z,-1.76
2022-12-16T07:08:05.726Z,-1.77
2022-12-16T07:10:50.878Z,-1.78
2022-12-16T07:13:36.138Z,-1.67
2022-12-16T07:16:21.516Z,-1.65
2022-12-16T07:19:06.973Z,-1.56
2022-12-16T07:21:52.399Z,-1.53
2022-12-16T07:24:40.076Z,-1.59
2022-12-16T07:27:25.042Z,-1.65
2022-12-16T07:30:10.488Z,-1.58
2022-12-16T07:32:56.038Z,-1.64
2022-12-16T07:35:41.191Z,-1.65
2022-12-16T07:38:26.106Z,-1.54
2022-12-16T07:41:11.156Z,-1.50
2022-12-16T07:43:56.456Z,-1.53
2022-12-16T07:46:41.625Z,-1.60
2022-12-16T07:49:26.672Z,-1.58
2022-12-16T07:52:11.543Z,-1.57
2022-12-16T07:54:56.974Z,-1.48
2022-12-16T07:57:42.197Z,-1.50
2022-12-16T08:00:28.028Z,-1.42
2022-12-16T08:03:13.953Z,-1.40
2022-12-16T08:05:59.256Z,-1.48
2022-12-16T08:08:44.429Z,-1.51
2022-12-16T08:11:29.559Z,-1.46
2022-12-16T08:14:14.439Z,-1.47
2022-12-16T08:16:59.770Z,-1.34
2022-12-16T08:19:44.688Z,-1.26
2022-12-16T08:22:29.873Z,-1.27
2022-12-16T08:25:15.217Z,-1.19
2022-12-16T08:28:00.648Z,-1.19
2022-12-16T08:30:45.951Z,-1.18
2022-12-16T08:33:31.546Z,-1.15
2022-12-16T08:36:17.499Z,-1.10
2022-12-16T08:39:02.917Z,-1.01
2022-12-16T08:41:48.269Z,-0.91
2022-12-16T08:44:33.374Z,-0.94
2022-12-16T08:47:18.461Z,-0.83
2022-12-16T08:50:03.328Z,-0.75
2022-12-16T08:52:49.125Z,-0.67
2022-12-16T08:55:34.418Z,-0.70
2022-12-16T08:58:19.743Z,-0.65
2022-12-16T09:01:07.771Z,-0.64
2022-12-16T09:03:55.276Z,-0.71
2022-12-16T09:06:41.225Z,-0.71
2022-12-16T09:09:27.805Z,-0.64
2022-12-16T09:12:13.120Z,-0.49
2022-12-16T09:14:58.296Z,-0.46
2022-12-16T09:17:43.860Z,-0.39
2022-12-16T09:20:28.991Z,-0.27
2022-12-16T09:23:14.369Z,-0.32
2022-12-16T09:25:59.709Z,-0.33
2022-12-16T09:28:45.183Z,-0.29
2022-12-16T09:31:30.458Z,-0.35
2022-12-16T09:34:16.339Z,-0.44
2022-12-16T09:37:02.475Z,-0.32
2022-12-16T09:39:54.209Z,-0.15
2022-12-16T09:42:49.422Z,-0.07
2022-12-16T09:45:37.960Z,0.09
2022-12-16T09:48:34.088Z,0.18
2022-12-16T09:51:24.530Z,0.16
2022-12-16T09:54:15.130Z,0.25
2022-12-16T09:57:03.550Z,0.30
2022-12-16T09:59:58.570Z,0.31
2022-12-16T10:02:44.729Z,0.45
2022-12-16T10:05:40.808Z,0.43
2022-12-16T10:08:55.569Z,0.34
2022-12-16T10:11:49.281Z,0.34
2022-12-16T10:14:46.293Z,0.43
2022-12-16T10:17:40.678Z,0.48
2022-12-16T10:20:44.535Z,0.55
2022-12-16T10:23:41.966Z,0.47
2022-12-16T10:26:42.168Z,0.46
2022-12-16T10:29:43.769Z,0.47
2022-12-16T10:32:43.370Z,0.46
2022-12-16T10:35:36.774Z,0.45
2022-12-16T10:38:28.223Z,0.53
2022-12-16T10:41:13.923Z,0.55
2022-12-16T10:44:05.178Z,0.65
2022-12-16T10:46:54.292Z,0.60
2022-12-16T10:49:41.489Z,0.69
2022-12-16T10:52:33.420Z,0.82
2022-12-16T10:55:35.705Z,1.06
2022-12-16T10:58:39.165Z,1.04
2022-12-16T11:01:41.195Z,1.10
2022-12-16T11:04:46.137Z,1.13
2022-12-16T11:07:51.569Z,1.13
2022-12-16T11:11:01.257Z,1.18
2022-12-16T11:13:49.401Z,1.30
2022-12-16T11:16:38.586Z,1.41
2022-12-16T11:19:39.213Z,1.51
2022-12-16T11:22:31.517Z,1.51
2022-12-16T11:25:46.313Z,1.42
2022-12-16T11:28:35.881Z,1.49
2022-12-16T11:31:33.283Z,1.74
2022-12-16T11:34:20.892Z,1.81
2022-12-16T11:37:28.347Z,1.83
2022-12-16T11:40:13.817Z,1.79
2022-12-16T11:43:03.017Z,1.78
2022-12-16T11:45:54.083Z,1.78
2022-12-16T11:48:55.907Z,1.80
2022-12-16T11:51:45.647Z,4.27
2022-12-16T11:54:36.961Z,8.63
2022-12-16T11:57:26.122Z,10.83
2022-12-16T12:00:17.517Z,12.64
2022-12-16T12:03:11.022Z,12.30
2022-12-16T12:06:00.743Z,12.66
2022-12-16T12:08:55.874Z,14.06
2022-12-16T12:11:54.250Z,14.88
2022-12-16T12:15:07.408Z,13.53
2022-12-16T12:17:58.983Z,12.66
2022-12-16T12:20:59.280Z,12.74
2022-12-16T12:23:54.987Z,12.24
2022-12-16T12:26:51.922Z,12.80
2022-12-16T12:29:38.204Z,13.93
2022-12-16T12:32:42.896Z,13.83
2022-12-16T12:35:40.623Z,14.89
2022-12-16T12:38:48.608Z,15.84
2022-12-16T12:41:47.430Z,15.65
2022-12-16T12:45:02.612Z,15.22
2022-12-16T12:47:49.823Z,15.32
2022-12-16T12:50:47.306Z,15.31
2022-12-16T12:54:00.284Z,15.07
2022-12-16T12:57:09.029Z,14.10
2022-12-16T13:00:23.204Z,12.34
2022-12-16T13:03:34.300Z,9.52
2022-12-16T13:06:20.580Z,7.51
2022-12-16T13:09:08.825Z,6.23
2022-12-16T13:12:18.252Z,5.48
2022-12-16T13:15:06.256Z,5.00
2022-12-16T13:18:20.457Z,4.76
2022-12-16T13:21:13.548Z,4.48
2022-12-16T13:24:03.949Z,4.34
2022-12-16T13:26:52.743Z,4.12
2022-12-16T13:29:47.710Z,3.99
2022-12-16T13:32:45.492Z,3.84
2022-12-16T13:35:32.003Z,3.76
2022-12-16T13:38:37.773Z,3.69
2022-12-16T13:41:25.851Z,3.69
2022-12-16T13:44:11.225Z,3.69
2022-12-16T13:47:08.134Z,3.63
2022-12-16T13:49:56.445Z,3.59
2022-12-16T13:53:16.247Z,3.49
2022-12-16T13:56:13.165Z,3.50
2022-12-16T13:59:02.592Z,3.48
2022-12-16T14:02:06.848Z,3.48
2022-12-16T14:05:08.438Z,3.47
2022-12-16T14:07:57.784Z,3.40
2022-12-16T14:10:53.366Z,3.34
2022-12-16T14:14:04.748Z,3.17
2022-12-16T14:17:11.136Z,3.13
2022-12-16T14:20:18.231Z,3.12
2022-12-16T14:23:55.992Z,3.09
2022-12-16T14:26:36.803Z,2.97
2022-12-16T14:29:32.536Z,2.83
2022-12-16T14:32:19.182Z,2.75
2022-12-16T14:35:04.213Z,2.76
2022-12-16T14:37:54.937Z,2.80
2022-12-16T14:40:58.408Z,2.64
2022-12-16T14:43:44.597Z,2.44
2022-12-16T14:46:50.730Z,2.43
2022-12-16T14:49:45.107Z,2.37
2022-12-16T14:52:38.486Z,2.36
2022-12-16T14:55:35.273Z,2.24
2022-12-16T14:58:28.991Z,2.31
2022-12-16T15:01:18.494Z,2.20
2022-12-16T15:04:12.124Z,2.13
2022-12-16T15:07:02.091Z,2.07
2022-12-16T15:09:57.171Z,2.18
2022-12-16T15:12:46.464Z,2.11
2022-12-16T15:15:44.237Z,2.09
2022-12-16T15:18:37.081Z,2.08
2022-12-16T15:21:22.764Z,2.12
2022-12-16T15:24:08.095Z,2.12
2022-12-16T15:26:53.749Z,2.07
2022-12-16T15:29:51.126Z,2.08
2022-12-16T15:32:54.415Z,2.06
2022-12-16T15:35:42.774Z,1.94
2022-12-16T15:38:33.850Z,1.83
2022-12-16T15:41:24.613Z,1.75
2022-12-16T15:44:10.938Z,1.74
2022-12-16T15:46:56.637Z,1.75
2022-12-16T15:49:51.503Z,1.75
2022-12-16T15:52:49.060Z,1.74
2022-12-16T15:55:50.347Z,1.75
2022-12-16T15:58:44.326Z,1.73
2022-12-16T16:01:32.553Z,1.70
2022-12-16T16:04:17.853Z,1.69
2022-12-16T16:07:09.992Z,1.77
2022-12-16T16:09:57.165Z,1.77
2022-12-16T16:12:43.819Z,1.75
2022-12-16T16:15:32.930Z,1.68
2022-12-16T16:18:38.535Z,1.64
2022-12-16T16:21:23.788Z,1.60
2022-12-16T16:24:08.642Z,1.61
2022-12-16T16:26:53.830Z,1.65
2022-12-16T16:29:38.961Z,1.61
2022-12-16T16:32:24.578Z,1.62
2022-12-16T16:35:09.795Z,1.63
2022-12-16T16:37:55.179Z,1.60
2022-12-16T16:40:53.667Z,1.65
2022-12-16T16:43:38.817Z,1.57
2022-12-16T16:46:39.484Z,1.55
2022-12-16T16:49:30.784Z,1.54
2022-12-16T16:52:16.197Z,1.60
2022-12-16T16:55:01.461Z,1.62
2022-12-16T16:57:51.739Z,1.63
2022-12-16T17:00:36.969Z,1.52
2022-12-16T17:03:22.687Z,1.36
2022-12-16T17:06:07.959Z,1.33
2022-12-16T17:08:53.186Z,1.27
2022-12-16T17:11:40.948Z,1.17
2022-12-16T17:14:32.581Z,1.08
2022-12-16T17:17:18.225Z,1.06
2022-12-16T17:20:04.013Z,1.06
2022-12-16T17:22:49.863Z,1.11
2022-12-16T17:25:35.443Z,1.18
2022-12-16T17:28:21.648Z,1.33
2022-12-16T17:31:06.832Z,1.27
2022-12-16T17:33:52.070Z,1.22
2022-12-16T17:36:37.705Z,1.20
2022-12-16T17:39:24.025Z,1.16
2022-12-16T17:42:09.621Z,1.19
2022-12-16T17:44:54.491Z,1.12
2022-12-16T17:47:41.397Z,1.06
2022-12-16T17:50:27.339Z,1.05
2022-12-16T17:53:14.438Z,1.09
2022-12-16T17:56:00.186Z,1.04
2022-12-16T17:58:52.786Z,1.09
2022-12-16T18:01:38.719Z,1.08
2022-12-16T18:04:24.709Z,1.02
2022-12-16T18:07:10.375Z,1.00
2022-12-16T18:09:55.565Z,1.02
2022-12-16T18:12:41.603Z,1.00
2022-12-16T18:15:27.431Z,1.00
2022-12-16T18:18:12.697Z,0.96
2022-12-16T18:20:58.043Z,0.98
2022-12-16T18:23:43.225Z,1.12
2022-12-16T18:26:29.551Z,1.00
2022-12-16T18:29:15.328Z,0.95
2022-12-16T18:32:00.563Z,0.92
2022-12-16T18:34:45.939Z,0.83
2022-12-16T18:37:31.707Z,0.83
2022-12-16T18:40:17.556Z,0.79
2022-12-16T18:43:03.028Z,0.81
2022-12-16T18:45:51.304Z,0.76
2022-12-16T18:48:36.394Z,0.80
2022-12-16T18:51:22.239Z,0.82
2022-12-16T18:54:09.199Z,0.68
2022-12-16T18:56:54.604Z,0.60
2022-12-16T18:59:39.790Z,0.57
2022-12-16T19:02:25.512Z,0.65
2022-12-16T19:05:11.238Z,0.69
2022-12-16T19:07:56.540Z,0.70
2022-12-16T19:10:41.891Z,0.60
2022-12-16T19:13:32.398Z,0.57
2022-12-16T19:16:17.673Z,0.50
2022-12-16T19:19:03.040Z,0.48
2022-12-16T19:24:55.027Z,0.52
2022-12-16T19:27:42.023Z,0.56
2022-12-16T19:30:28.582Z,0.48
2022-12-16T19:33:13.978Z,0.48
2022-12-16T19:35:59.571Z,0.52
2022-12-16T19:38:44.772Z,0.48
2022-12-16T19:41:34.509Z,0.46
2022-12-16T19:44:20.274Z,0.50
2022-12-16T19:47:05.736Z,0.42
2022-12-16T19:49:54.780Z,0.40
2022-12-16T19:52:42.091Z,0.46
2022-12-16T19:55:27.413Z,0.39
2022-12-16T19:58:12.826Z,0.36
2022-12-16T20:01:01.398Z,0.36
2022-12-16T20:03:47.727Z,0.31
2022-12-16T20:06:33.607Z,0.23
2022-12-16T20:09:19.687Z,0.22
2022-12-16T20:12:09.952Z,0.21
2022-12-16T20:14:56.560Z,0.27
2022-12-16T20:17:44.167Z,0.31
2022-12-16T20:20:29.845Z,0.31
2022-12-16T20:23:15.208Z,0.29
2022-12-16T20:26:00.919Z,0.32
2022-12-16T20:28:46.369Z,0.30
2022-12-16T20:31:31.785Z,0.23
2022-12-16T20:34:23.278Z,0.08
2022-12-16T20:37:08.691Z,-0.01
2022-12-16T20:39:56.409Z,0.10
2022-12-16T20:43:00.601Z,0.06
2022-12-16T20:45:48.299Z,0.07
2022-12-16T20:48:34.911Z,-0.02
2022-12-16T20:51:26.530Z,-0.18
2022-12-16T20:54:14.267Z,-0.30
2022-12-16T20:56:59.877Z,-0.36
2022-12-16T20:59:44.931Z,-0.35
2022-12-16T21:05:37.128Z,-0.22
2022-12-16T21:08:22.531Z,-0.08
2022-12-16T21:11:08.025Z,-0.04
2022-12-16T21:13:56.358Z,-0.03
2022-12-16T21:16:41.955Z,-0.03
2022-12-16T21:19:33.093Z,-0.06
2022-12-16T21:22:18.795Z,-0.08
2022-12-16T21:25:04.044Z,-0.12
2022-12-16T21:27:49.292Z,-0.13
2022-12-16T21:30:34.476Z,-0.07
2022-12-16T21:33:19.799Z,-0.10
2022-12-16T21:36:14.276Z,-0.11
2022-12-16T21:39:00.127Z,-0.14
2022-12-16T21:41:45.686Z,-0.16
2022-12-16T21:44:30.938Z,-0.09
2022-12-16T21:47:16.091Z,-0.08
2022-12-16T21:50:01.698Z,-0.03
2022-12-16T21:52:46.965Z,0.04
2022-12-16T21:55:35.513Z,-0.14
2022-12-16T21:58:31.928Z,-0.18
2022-12-16T22:01:18.315Z,-0.31
2022-12-16T22:04:09.677Z,-0.38
2022-12-16T22:06:55.154Z,-0.39
2022-12-16T22:09:42.356Z,-0.36
2022-12-16T22:12:28.013Z,-0.39
2022-12-16T22:15:13.368Z,-0.41
2022-12-16T22:17:59.086Z,-0.30
2022-12-16T22:20:45.603Z,-0.41
2022-12-16T22:23:31.056Z,-0.45
2022-12-16T22:26:18.605Z,-0.45
2022-12-16T22:29:07.221Z,-0.47
2022-12-16T22:31:58.373Z,-0.50
2022-12-16T22:34:43.708Z,-0.48
2022-12-16T22:37:31.439Z,-0.31
2022-12-16T22:40:17.264Z,-0.39
2022-12-16T22:43:02.646Z,-0.42
2022-12-16T22:45:47.848Z,-0.42
2022-12-16T22:48:35.856Z,-0.45
2022-12-16T22:51:21.433Z,-0.56
2022-12-16T22:54:07.731Z,-0.63
2022-12-16T22:56:56.332Z,-0.62
2022-12-16T22:59:42.407Z,-0.50
2022-12-16T23:02:28.342Z,-0.51
2022-12-16T23:05:14.490Z,-0.62
2022-12-16T23:08:01.616Z,-0.64
2022-12-16T23:10:59.172Z,-0.60
2022-12-16T23:13:45.618Z,-0.46
2022-12-16T23:16:31.029Z,-0.49
2022-12-16T23:19:16.283Z,-0.52
2022-12-16T23:22:02.030Z,-0.63
2022-12-16T23:25:07.021Z,-0.70
2022-12-16T23:27:52.238Z,-0.78
2022-12-16T23:30:37.967Z,-0.78
2022-12-16T23:33:23.037Z,-0.79
2022-12-16T23:36:08.360Z,-0.80
2022-12-16T23:38:53.802Z,-0.80
2022-12-16T23:41:41.552Z,-0.77
2022-12-16T23:44:26.663Z,-0.78
2022-12-16T23:47:11.926Z,-0.80
2022-12-16T23:49:57.191Z,-0.78
2022-12-16T23:52:42.416Z,-0.76
2022-12-16T23:55:28.534Z,-0.75
2022-12-16T23:58:21.251Z,-0.72
